Time;durP1;ratioP1;P1;durP2;ratioP2;P2;SDS_P1;SDS_P2;PMS_P1;PMS_P2;Temp;Humidity;BMP_temperature;BMP_pressure;BME280_temperature;BME280_humidity;BME280_pressure;Samples;Min_cycle;Max_cycle;Signal;HPM_P1;HPM_P2
2022/08/19 00:00:15;;;;;;;2.52;2.08;;;19.00;99.90;;;;;;1909913;75;21106;-80
2022/08/19 00:03:06;;;;;;;2.12;1.85;;;19.00;99.90;;;;;;1913990;75;21078;-80
2022/08/19 00:05:59;;;;;;;3.75;1.65;;;19.10;99.90;;;;;;1914484;75;21205;-79
2022/08/19 00:08:51;;;;;;;2.22;1.62;;;19.00;99.90;;;;;;1901738;75;21039;-80
2022/08/19 00:11:43;;;;;;;1.82;1.60;;;19.00;99.90;;;;;;1886087;75;21040;-79
2022/08/19 00:14:40;;;;;;;1.60;1.30;;;19.00;99.90;;;;;;1886857;75;21078;-79
2022/08/19 00:17:36;;;;;;;2.37;2.17;;;19.00;99.90;;;;;;1891820;75;21132;-78
2022/08/19 00:23:07;;;;;;;1.98;1.60;;;19.10;99.90;;;;;;1957975;72;22130;-76
2022/08/19 00:25:58;;;;;;;2.30;1.90;;;19.10;99.90;;;;;;1934646;73;21047;-77
2022/08/19 00:29:12;;;;;;;1.32;1.20;;;19.10;99.90;;;;;;1931139;73;21103;-82
2022/08/19 00:32:04;;;;;;;1.90;1.22;;;19.10;99.90;;;;;;1917632;75;21055;-81
2022/08/19 00:37:34;;;;;;;1.77;1.12;;;19.00;99.90;;;;;;1946415;72;22125;-80
2022/08/19 00:43:12;;;;;;;1.65;1.30;;;19.20;99.90;;;;;;1957095;72;22115;-80
2022/08/19 00:46:10;;;;;;;1.15;0.90;;;19.20;99.90;;;;;;1901901;75;21096;-80
2022/08/19 00:49:03;;;;;;;1.30;1.20;;;19.10;99.90;;;;;;1897122;75;21039;-78
2022/08/19 00:51:58;;;;;;;1.40;1.10;;;19.10;99.90;;;;;;1900286;75;21084;-78
2022/08/19 00:57:34;;;;;;;2.50;1.30;;;19.00;99.90;;;;;;1946859;72;22228;-78
2022/08/19 01:03:04;;;;;;;1.52;1.30;;;18.90;99.90;;;;;;1952039;72;22137;-78
2022/08/19 01:05:56;;;;;;;2.22;1.27;;;18.80;99.90;;;;;;1884749;75;21160;-78
2022/08/19 01:08:47;;;;;;;3.55;1.60;;;18.80;99.90;;;;;;1893990;75;21102;-78
2022/08/19 01:11:43;;;;;;;2.05;1.40;;;18.80;99.90;;;;;;1895591;75;21048;-77
2022/08/19 01:14:35;;;;;;;2.47;1.12;;;18.80;99.90;;;;;;1893323;75;21150;-78
2022/08/19 01:17:26;;;;;;;2.77;1.40;;;18.80;99.90;;;;;;1897088;75;21074;-78
2022/08/19 01:20:21;;;;;;;2.42;1.37;;;18.80;99.90;;;;;;1898965;75;21098;-79
2022/08/19 01:23:15;;;;;;;1.95;1.45;;;18.80;99.90;;;;;;1884656;75;21253;-79
2022/08/19 01:26:06;;;;;;;1.40;1.30;;;18.80;99.90;;;;;;1884713;75;21089;-78
2022/08/19 01:29:00;;;;;;;1.50;1.40;;;18.90;99.90;;;;;;1884720;75;21102;-79
2022/08/19 01:31:53;;;;;;;2.30;1.90;;;18.90;99.90;;;;;;1904703;75;21066;-80
2022/08/19 01:34:46;;;;;;;2.33;2.08;;;18.90;99.90;;;;;;1884706;75;21522;-81
2022/08/19 01:37:48;;;;;;;4.25;2.17;;;18.90;99.90;;;;;;1907871;75;21059;-80
2022/08/19 01:40:41;;;;;;;2.42;1.90;;;19.00;99.90;;;;;;1899864;75;21051;-80
2022/08/19 01:43:34;;;;;;;2.27;1.70;;;19.10;99.90;;;;;;1897994;75;21055;-81
2022/08/19 01:46:25;;;;;;;2.40;1.65;;;19.10;99.90;;;;;;1885539;75;21183;-80
2022/08/19 01:49:18;;;;;;;2.42;2.22;;;19.10;99.90;;;;;;1894805;75;21114;-80
2022/08/19 01:52:09;;;;;;;2.45;2.22;;;19.00;99.90;;;;;;1906004;75;21058;-79
2022/08/19 01:55:01;;;;;;;2.30;2.10;;;19.10;99.90;;;;;;1889812;75;21050;-79
2022/08/19 01:57:56;;;;;;;3.42;2.58;;;19.10;99.90;;;;;;1884628;75;21109;-79
2022/08/19 02:03:26;;;;;;;2.90;2.60;;;19.20;99.90;;;;;;1943005;72;22117;-78
2022/08/19 02:06:17;;;;;;;3.12;2.90;;;19.30;99.90;;;;;;1910879;74;21098;-78
2022/08/19 02:11:53;;;;;;;3.92;2.58;;;19.20;99.90;;;;;;1943603;72;22264;-79
2022/08/19 02:14:59;;;;;;;3.05;2.02;;;19.40;99.90;;;;;;1933106;73;21102;-79
2022/08/19 02:17:50;;;;;;;2.30;2.10;;;19.30;99.90;;;;;;1940567;73;21120;-80
2022/08/19 02:20:43;;;;;;;2.58;1.92;;;19.20;99.90;;;;;;1927916;73;21082;-80
2022/08/19 02:23:36;;;;;;;2.45;1.67;;;19.20;99.90;;;;;;1917279;73;21580;-79
2022/08/19 02:26:28;;;;;;;2.33;2.12;;;19.20;99.90;;;;;;1917581;73;21055;-80
2022/08/19 02:29:19;;;;;;;3.55;2.90;;;19.20;99.90;;;;;;1917743;73;21052;-79
2022/08/19 02:32:11;;;;;;;3.05;2.75;;;19.20;99.90;;;;;;1936130;73;21051;-79
2022/08/19 02:35:03;;;;;;;1.80;1.47;;;19.20;99.90;;;;;;1929862;73;21094;-78
2022/08/19 02:41:07;;;;;;;1.80;1.70;;;19.10;99.90;;;;;;1917680;75;21098;-77
2022/08/19 02:44:06;;;;;;;2.30;1.75;;;19.00;99.90;;;;;;1917889;74;21498;-77
2022/08/19 02:49:38;;;;;;;2.25;1.30;;;19.10;99.90;;;;;;1935817;72;22206;-77
2022/08/19 02:52:29;;;;;;;2.87;1.62;;;19.10;99.90;;;;;;1899922;75;21220;-76
2022/08/19 02:58:00;;;;;;;1.95;1.85;;;19.10;99.90;;;;;;1952667;72;22153;-77
2022/08/19 03:03:39;;;;;;;2.85;2.55;;;19.10;99.90;;;;;;1933936;72;28079;-79
2022/08/19 03:06:31;;;;;;;2.25;1.80;;;19.00;99.90;;;;;;1902366;75;21123;-77
2022/08/19 03:09:22;;;;;;;2.58;1.80;;;18.70;99.90;;;;;;1900765;74;21497;-76
2022/08/19 03:12:14;;;;;;;2.45;2.25;;;18.50;99.90;;;;;;1913977;74;21147;-77
2022/08/19 03:17:47;;;;;;;2.17;1.62;;;18.40;99.90;;;;;;1942709;72;22585;-76
2022/08/19 03:20:43;;;;;;;1.95;1.75;;;18.40;99.90;;;;;;1896628;75;21219;-75
2022/08/19 03:23:35;;;;;;;2.40;2.20;;;18.50;99.90;;;;;;1894503;74;21141;-76
2022/08/19 03:26:26;;;;;;;4.03;2.10;;;18.60;99.90;;;;;;1893686;75;21062;-75
2022/08/19 03:29:19;;;;;;;2.08;1.70;;;18.70;99.90;;;;;;1877682;76;21059;-79
2022/08/19 03:32:12;;;;;;;2.50;1.82;;;18.80;99.90;;;;;;1911005;75;21070;-75
2022/08/19 03:37:46;;;;;;;1.95;1.65;;;18.80;99.90;;;;;;1932051;72;22280;-75
2022/08/19 03:40:39;;;;;;;2.12;1.65;;;18.70;99.90;;;;;;1899233;75;21117;-77
2022/08/19 03:43:30;;;;;;;2.35;1.70;;;18.60;99.90;;;;;;1889468;75;21063;-77
2022/08/19 03:46:24;;;;;;;1.82;1.50;;;18.70;99.90;;;;;;1893080;75;21135;-76
2022/08/19 03:49:16;;;;;;;2.12;1.40;;;18.90;99.90;;;;;;1884653;75;21077;-76
2022/08/19 03:54:48;;;;;;;1.62;1.35;;;18.80;99.90;;;;;;1946905;72;22283;-76
2022/08/19 03:57:40;;;;;;;3.20;1.60;;;18.80;99.90;;;;;;1896817;75;21483;-76
2022/08/19 04:00:33;;;;;;;2.72;1.70;;;18.80;99.90;;;;;;1899834;75;21055;-77
2022/08/19 04:03:30;;;;;;;1.62;1.50;;;18.70;99.90;;;;;;1886859;75;21125;-77
2022/08/19 04:06:23;;;;;;;4.92;1.50;;;18.70;99.90;;;;;;1893883;75;21556;-76
2022/08/19 04:09:14;;;;;;;2.27;1.22;;;18.80;99.90;;;;;;1897959;75;21153;-77
2022/08/19 04:12:08;;;;;;;1.57;1.47;;;18.70;99.90;;;;;;1909033;75;21055;-77
2022/08/19 04:14:59;;;;;;;1.80;1.40;;;19.00;99.90;;;;;;1891357;75;21167;-77
2022/08/19 04:17:50;;;;;;;2.20;1.50;;;19.00;99.90;;;;;;1910229;75;21052;-77
2022/08/19 04:20:44;;;;;;;1.85;1.60;;;19.00;99.90;;;;;;1894123;75;21039;-77
2022/08/19 04:23:36;;;;;;;1.50;1.40;;;19.00;99.90;;;;;;1885005;75;21067;-77
2022/08/19 04:26:32;;;;;;;2.35;1.80;;;18.90;99.90;;;;;;1886421;75;21110;-77
2022/08/19 04:29:30;;;;;;;1.82;1.67;;;18.80;99.90;;;;;;1884787;75;21139;-76
2022/08/19 04:32:22;;;;;;;1.40;1.30;;;18.70;99.90;;;;;;1894071;75;21061;-76
2022/08/19 04:35:13;;;;;;;2.12;1.10;;;18.80;99.90;;;;;;1891759;75;21094;-76
2022/08/19 04:38:07;;;;;;;1.45;1.17;;;18.90;99.90;;;;;;1913367;75;21070;-76
2022/08/19 04:44:07;;;;;;;2.22;1.20;;;19.00;99.90;;;;;;1889166;75;21067;-77
2022/08/19 04:46:58;;;;;;;1.20;1.10;;;19.00;99.90;;;;;;1884772;75;21067;-78
2022/08/19 04:49:51;;;;;;;1.62;1.35;;;18.90;99.90;;;;;;1884413;75;21124;-78
2022/08/19 04:52:42;;;;;;;1.90;1.30;;;18.90;99.90;;;;;;1898109;75;21128;-82
2022/08/19 04:55:35;;;;;;;1.62;1.50;;;18.90;99.90;;;;;;1900758;74;21191;-73
2022/08/19 04:58:28;;;;;;;2.00;1.80;;;18.90;99.90;;;;;;1920359;74;21594;-75
2022/08/19 05:01:22;;;;;;;2.85;1.62;;;18.90;99.90;;;;;;1908688;74;21113;-84
2022/08/19 05:04:13;;;;;;;1.35;1.25;;;19.00;99.90;;;;;;1912515;74;21144;-72
2022/08/19 05:07:04;;;;;;;1.60;1.40;;;19.10;99.90;;;;;;1917716;74;21124;-72
2022/08/19 05:09:56;;;;;;;2.08;1.62;;;19.10;99.90;;;;;;1917710;74;21119;-72
2022/08/19 05:15:34;;;;;;;1.45;1.35;;;19.10;99.90;;;;;;1917267;72;27959;-86
2022/08/19 05:24:22;;;;;;;2.92;1.70;;;18.90;99.90;;;;;;1909651;74;21098;-86
2022/08/19 05:27:15;;;;;;;1.72;1.52;;;18.90;99.90;;;;;;1925564;74;21615;-87
2022/08/19 05:32:57;;;;;;;1.75;1.57;;;18.90;99.90;;;;;;1937554;72;22236;-88
2022/08/19 05:38:36;;;;;;;2.98;1.72;;;18.80;99.90;;;;;;1944991;72;22193;-83
2022/08/19 05:41:30;;;;;;;2.30;2.10;;;18.80;99.90;;;;;;1933900;73;21494;-76
2022/08/19 05:44:21;;;;;;;1.70;1.60;;;18.90;99.90;;;;;;1930199;73;21051;-76
2022/08/19 05:47:14;;;;;;;1.80;1.70;;;18.90;99.90;;;;;;1931608;73;21094;-75
2022/08/19 05:50:07;;;;;;;2.52;1.90;;;18.90;99.90;;;;;;1935686;73;21073;-82
2022/08/19 05:52:58;;;;;;;2.40;1.47;;;18.90;99.90;;;;;;1928644;73;21567;-86
2022/08/19 05:55:50;;;;;;;1.50;1.40;;;19.00;99.90;;;;;;1930711;73;21043;-85
2022/08/19 05:58:42;;;;;;;1.42;1.30;;;19.00;99.90;;;;;;1924232;73;21088;-86
2022/08/19 06:04:19;;;;;;;3.05;1.70;;;19.00;99.90;;;;;;1931501;72;27927;-84
2022/08/19 06:07:10;;;;;;;1.45;1.35;;;19.10;99.90;;;;;;1898925;74;21126;-84
2022/08/19 06:12:47;;;;;;;1.50;1.10;;;19.00;99.90;;;;;;1934391;72;22292;-84
2022/08/19 06:15:38;;;;;;;1.60;1.50;;;19.00;99.90;;;;;;1894248;75;21170;-84
2022/08/19 06:18:30;;;;;;;1.45;1.10;;;19.10;99.90;;;;;;1900357;75;21152;-85
2022/08/19 06:21:30;;;;;;;1.17;0.90;;;19.10;99.90;;;;;;1888256;74;21082;-85
2022/08/19 06:24:25;;;;;;;1.00;0.90;;;19.00;99.90;;;;;;1897922;75;21123;-82
2022/08/19 06:29:55;;;;;;;1.60;1.20;;;19.00;99.90;;;;;;1946701;72;23002;-82
2022/08/19 06:35:26;;;;;;;2.25;1.60;;;19.10;99.90;;;;;;1929688;72;22292;-82
2022/08/19 06:38:20;;;;;;;1.87;1.40;;;19.10;99.90;;;;;;1822636;77;21102;-82
2022/08/19 06:43:51;;;;;;;1.20;1.10;;;19.10;99.90;;;;;;1943489;72;22373;-82
2022/08/19 06:46:44;;;;;;;1.62;1.37;;;19.20;99.90;;;;;;1901157;75;21087;-80
2022/08/19 06:49:39;;;;;;;1.40;1.30;;;19.30;99.90;;;;;;1898653;75;21121;-81
2022/08/19 06:52:30;;;;;;;2.27;1.60;;;19.30;99.90;;;;;;1906920;75;21080;-82
2022/08/19 06:55:23;;;;;;;1.50;1.15;;;19.40;99.90;;;;;;1894924;75;21118;-86
2022/08/19 07:00:55;;;;;;;2.42;1.75;;;19.50;99.90;;;;;;1937557;72;22193;-81
2022/08/19 07:03:47;;;;;;;2.20;2.00;;;19.50;99.90;;;;;;1902281;75;21044;-81
2022/08/19 07:06:40;;;;;;;2.52;1.65;;;19.50;99.90;;;;;;1886550;75;21088;-81
2022/08/19 07:09:36;;;;;;;2.50;2.20;;;19.60;99.90;;;;;;1889134;75;21063;-81
2022/08/19 07:12:31;;;;;;;3.15;2.55;;;19.80;99.90;;;;;;1885536;75;21101;-81
2022/08/19 07:18:01;;;;;;;3.20;2.30;;;20.00;99.90;;;;;;1933622;72;22248;-81
2022/08/19 07:21:09;;;;;;;3.12;1.87;;;20.10;99.90;;;;;;1891235;75;21182;-75
2022/08/19 07:24:01;;;;;;;2.47;2.27;;;20.20;99.90;;;;;;1889642;75;21179;-75
2022/08/19 07:27:00;;;;;;;2.87;2.47;;;20.20;99.90;;;;;;1891103;75;21078;-75
2022/08/19 07:29:50;;;;;;;4.08;2.70;;;20.20;99.90;;;;;;1893807;75;21518;-75
2022/08/19 07:32:43;;;;;;;3.00;2.30;;;20.20;99.90;;;;;;1906039;75;21171;-75
2022/08/19 07:35:34;;;;;;;2.92;1.95;;;20.20;99.90;;;;;;1899291;75;21055;-76
2022/08/19 07:41:04;;;;;;;2.00;1.80;;;20.20;99.90;;;;;;1930783;72;22232;-75
2022/08/19 07:43:56;;;;;;;3.25;2.30;;;20.20;99.90;;;;;;1902106;75;21110;-76
2022/08/19 07:46:50;;;;;;;2.25;1.90;;;20.30;99.90;;;;;;1896867;74;21053;-76
2022/08/19 07:50:08;;;;;;;3.77;3.30;;;20.40;99.90;;;;;;1893410;75;21051;-76
2022/08/19 07:53:05;;;;;;;2.67;1.90;;;20.60;99.90;;;;;;1902741;75;21135;-76
2022/08/19 07:56:03;;;;;;;3.15;1.67;;;20.60;99.90;;;;;;1898465;75;21142;-76
2022/08/19 07:58:52;;;;;;;2.45;1.70;;;20.50;99.90;;;;;;1894081;75;21111;-77
2022/08/19 08:01:43;;;;;;;3.47;1.95;;;20.60;99.90;;;;;;1902157;75;21102;-77
2022/08/19 08:11:03;;;;;;;2.62;1.47;;;20.80;99.90;;;;;;1893580;75;21051;-76
2022/08/19 08:13:56;;;;;;;1.62;1.40;;;21.00;99.90;;;;;;1884920;75;21602;-76
2022/08/19 08:16:49;;;;;;;1.45;1.35;;;21.00;99.90;;;;;;1884709;75;21070;-76
2022/08/19 08:19:41;;;;;;;2.02;1.55;;;21.10;99.90;;;;;;1898282;75;21039;-79
2022/08/19 08:25:44;;;;;;;1.98;1.75;;;21.40;99.90;;;;;;1898024;75;21153;-82
2022/08/19 08:28:40;;;;;;;2.42;1.90;;;21.50;99.90;;;;;;1897014;75;21150;-83
2022/08/19 08:31:41;;;;;;;1.90;1.50;;;21.50;99.90;;;;;;1891766;75;21470;-82
2022/08/19 08:34:32;;;;;;;3.15;1.50;;;21.60;99.90;;;;;;1897864;75;21120;-79
2022/08/19 08:37:23;;;;;;;1.57;1.47;;;21.40;99.90;;;;;;1901153;75;21109;-81
2022/08/19 08:43:02;;;;;;;2.10;1.27;;;21.40;99.90;;;;;;1936948;72;22243;-76
2022/08/19 08:48:41;;;;;;;2.95;1.57;;;21.20;99.90;;;;;;1933505;72;22106;-80
2022/08/19 08:51:35;;;;;;;1.60;1.47;;;21.10;99.90;;;;;;1900141;74;21058;-81
2022/08/19 08:54:32;;;;;;;1.65;1.55;;;21.00;99.90;;;;;;1907627;73;21105;-82
2022/08/19 09:00:16;;;;;;;2.83;1.82;;;21.30;99.90;;;;;;1948761;72;22268;-82
2022/08/19 09:03:19;;;;;;;2.30;1.87;;;21.20;99.90;;;;;;1917399;75;21134;-83
2022/08/19 09:06:15;;;;;;;;;;;21.20;99.90;;;;;;1920201;75;21063;-84
2022/08/19 09:09:18;;;;;;;2.30;2.10;;;21.20;99.90;;;;;;1923405;73;20124;-85
2022/08/19 09:12:13;;;;;;;2.02;1.82;;;21.20;99.90;;;;;;1917215;75;21166;-84
2022/08/19 09:17:44;;;;;;;1.60;1.50;;;21.10;99.90;;;;;;1933816;72;22106;-84
2022/08/19 09:20:49;;;;;;;1.90;1.77;;;21.00;99.90;;;;;;1897529;75;21467;-85
2022/08/19 09:23:49;;;;;;;1.92;1.72;;;21.00;99.90;;;;;;1901626;75;21482;-85
2022/08/19 09:26:43;;;;;;;2.95;2.25;;;21.00;99.90;;;;;;1904457;75;21105;-87
2022/08/19 09:29:36;;;;;;;1.85;1.75;;;21.00;99.90;;;;;;1898798;75;21135;-88
2022/08/19 09:32:30;;;;;;;3.30;2.30;;;20.90;99.90;;;;;;1897317;75;21111;-86
2022/08/19 09:35:22;;;;;;;1.90;1.80;;;20.90;99.90;;;;;;1913291;75;21187;-86
2022/08/19 09:38:14;;;;;;;2.50;2.10;;;20.90;99.90;;;;;;1899325;75;21107;-86
2022/08/19 09:43:52;;;;;;;2.25;2.05;;;20.90;99.90;;;;;;1927493;72;22193;-85
2022/08/19 09:46:46;;;;;;;2.10;1.90;;;20.80;99.90;;;;;;1894732;75;21621;-85
2022/08/19 09:49:39;;;;;;;2.10;1.98;;;20.90;99.90;;;;;;1897444;75;21059;-85
2022/08/19 09:52:30;;;;;;;2.52;2.33;;;20.90;99.90;;;;;;1903032;75;21163;-85
2022/08/19 09:58:06;;;;;;;2.00;1.80;;;21.10;99.90;;;;;;1933424;72;22110;-85
2022/08/19 10:01:07;;;;;;;2.17;1.98;;;21.10;99.90;;;;;;1902637;75;21118;-86
2022/08/19 10:04:19;;;;;;;2.25;2.05;;;21.10;99.90;;;;;;1892746;75;21094;-86
2022/08/19 10:07:13;;;;;;;5.08;2.00;;;21.10;99.90;;;;;;1897995;75;21039;-85
2022/08/19 10:12:47;;;;;;;2.00;1.90;;;21.20;99.90;;;;;;1936990;72;22565;-85
2022/08/19 10:15:44;;;;;;;2.37;2.17;;;21.20;99.90;;;;;;1911308;75;21251;-82
2022/08/19 10:18:38;;;;;;;2.20;2.00;;;21.20;99.90;;;;;;1898140;74;21097;-82
2022/08/19 10:24:19;;;;;;;2.27;2.05;;;21.10;99.90;;;;;;1938890;72;22229;-81
2022/08/19 10:27:12;;;;;;;4.22;2.60;;;21.10;99.90;;;;;;1909749;74;21054;-82
2022/08/19 10:32:52;;;;;;;2.77;2.58;;;21.10;99.90;;;;;;1927190;72;22321;-82
2022/08/19 10:35:51;;;;;;;2.20;2.10;;;21.10;99.90;;;;;;1867332;76;21179;-82
2022/08/19 10:38:46;;;;;;;2.50;2.30;;;21.10;99.90;;;;;;1907908;75;21049;-82
2022/08/19 10:41:43;;;;;;;2.45;2.25;;;21.30;99.90;;;;;;1907049;74;21112;-82
2022/08/19 10:44:37;;;;;;;2.70;2.50;;;21.30;99.90;;;;;;1906580;75;21186;-80
2022/08/19 10:47:40;;;;;;;2.70;2.50;;;21.40;99.90;;;;;;1907243;75;21044;-82
2022/08/19 10:53:43;;;;;;;2.90;2.70;;;21.10;99.90;;;;;;1908470;74;21042;-83
2022/08/19 10:56:55;;;;;;;2.87;2.67;;;21.00;99.90;;;;;;1906528;75;21471;-87
2022/08/19 10:59:57;;;;;;;2.90;2.70;;;20.90;99.90;;;;;;1930200;74;21094;-93
2022/08/19 11:03:01;;;;;;;3.15;2.95;;;20.80;99.90;;;;;;1904110;75;21097;-82
2022/08/19 11:06:00;;;;;;;2.62;2.42;;;20.70;99.90;;;;;;1902219;75;21187;-82
2022/08/19 11:08:59;;;;;;;3.15;2.95;;;20.70;99.90;;;;;;1906672;75;21057;-82
2022/08/19 11:11:51;;;;;;;;;;;20.90;99.90;;;;;;1908783;74;21106;-84
2022/08/19 11:14:45;;;;;;;2.87;2.67;;;20.90;99.90;;;;;;1912033;74;20195;-84
2022/08/19 11:17:40;;;;;;;3.65;2.92;;;20.80;99.90;;;;;;1906984;74;21185;-87
2022/08/19 11:23:14;;;;;;;2.90;2.70;;;20.90;99.90;;;;;;1933509;72;22358;-82
2022/08/19 11:26:06;;;;;;;3.50;3.20;;;20.90;99.90;;;;;;1892996;74;21044;-81
2022/08/19 11:29:04;;;;;;;3.80;3.40;;;20.90;99.90;;;;;;1892824;75;21094;-82
2022/08/19 11:32:01;;;;;;;3.15;2.85;;;20.90;99.90;;;;;;1881992;75;21131;-82
2022/08/19 11:34:52;;;;;;;3.20;3.00;;;21.10;99.90;;;;;;1884464;75;21353;-81
2022/08/19 11:37:55;;;;;;;3.58;2.83;;;21.20;99.90;;;;;;1890511;75;21079;-81
2022/08/19 11:40:56;;;;;;;3.20;2.90;;;21.40;99.90;;;;;;1892448;75;21126;-81
2022/08/19 11:43:48;;;;;;;3.08;2.80;;;21.50;99.90;;;;;;1894863;75;21586;-84
2022/08/19 11:49:27;;;;;;;3.37;3.08;;;22.00;99.90;;;;;;1948577;72;22111;-81
2022/08/19 11:54:58;;;;;;;3.10;2.80;;;22.00;99.90;;;;;;1933905;72;22206;-85
2022/08/19 11:57:50;;;;;;;3.50;3.20;;;22.10;99.90;;;;;;1890017;75;21062;-85
2022/08/19 12:03:21;;;;;;;3.95;3.20;;;22.20;99.90;;;;;;1946810;72;22334;-84
2022/08/19 12:08:54;;;;;;;3.47;3.22;;;22.30;99.90;;;;;;1940126;72;22189;-86
2022/08/19 12:11:46;;;;;;;3.55;3.25;;;22.50;99.90;;;;;;1888765;75;21189;-85
2022/08/19 12:14:38;;;;;;;3.90;3.33;;;22.60;99.90;;;;;;1887836;75;21109;-86
2022/08/19 12:17:38;;;;;;;3.50;3.20;;;22.60;99.90;;;;;;1902687;75;21516;-88
2022/08/19 12:23:07;;;;;;;4.17;3.37;;;22.70;99.90;;;;;;1932622;72;22193;-85
2022/08/19 12:28:41;;;;;;;3.95;3.65;;;22.90;99.90;;;;;;1925478;72;22119;-83
2022/08/19 12:34:13;;;;;;;4.17;3.83;;;22.60;99.90;;;;;;1934443;72;22559;-83
2022/08/19 12:37:07;;;;;;;3.98;3.58;;;22.50;99.90;;;;;;1940165;73;21062;-83
2022/08/19 12:39:59;;;;;;;5.22;4.20;;;22.40;99.90;;;;;;1946916;73;21072;-83
2022/08/19 12:42:51;;;;;;;4.12;3.72;;;22.20;99.90;;;;;;1941635;73;21106;-84
2022/08/19 12:45:43;;;;;;;4.35;3.95;;;22.00;99.90;;;;;;1936815;73;21116;-82
2022/08/19 12:48:36;;;;;;;4.28;3.75;;;21.80;99.90;;;;;;1937306;73;22174;-83
2022/08/19 12:51:31;;;;;;;4.17;3.77;;;21.50;99.90;;;;;;1932027;73;21063;-82
2022/08/19 12:54:22;;;;;;;4.17;3.30;;;21.40;99.90;;;;;;1969857;73;21067;-83
2022/08/19 12:57:15;;;;;;;3.40;3.20;;;21.30;99.90;;;;;;1947391;73;21123;-82
2022/08/19 13:02:49;;;;;;;4.17;3.87;;;21.10;99.90;;;;;;1933454;72;22738;-82
2022/08/19 13:08:21;;;;;;;6.95;6.25;;;21.30;99.90;;;;;;1932169;72;22133;-85
2022/08/19 13:13:55;;;;;;;8.08;7.28;;;20.70;99.90;;;;;;1954047;72;22306;-86
2022/08/19 13:16:47;;;;;;;6.78;6.08;;;20.40;99.90;;;;;;1913548;75;21133;-85
2022/08/19 13:19:39;;;;;;;6.37;5.78;;;20.00;99.90;;;;;;1893573;75;21058;-80
2022/08/19 13:22:31;;;;;;;8.63;7.80;;;19.90;99.90;;;;;;1911978;75;21086;-81
2022/08/19 13:25:23;;;;;;;9.03;7.85;;;19.90;99.90;;;;;;1884156;75;21110;-80
2022/08/19 13:28:15;;;;;;;9.15;8.25;;;19.90;99.90;;;;;;1884568;75;21180;-82
2022/08/19 13:33:45;;;;;;;8.85;8.00;;;19.90;99.90;;;;;;1938123;72;22172;-80
2022/08/19 13:36:37;;;;;;;10.53;8.90;;;20.00;99.90;;;;;;1878957;75;21113;-79
2022/08/19 13:39:28;;;;;;;9.38;8.40;;;20.10;99.90;;;;;;1900187;75;21042;-79
2022/08/19 13:42:20;;;;;;;11.65;8.68;;;20.20;99.90;;;;;;1908809;75;21059;-79
2022/08/19 13:45:12;;;;;;;9.50;8.60;;;20.20;99.90;;;;;;1912913;75;21534;-79
2022/08/19 13:48:08;;;;;;;9.53;8.63;;;20.30;99.90;;;;;;1907424;75;21135;-80
2022/08/19 13:50:59;;;;;;;9.30;8.40;;;20.20;99.90;;;;;;1908828;75;21079;-83
2022/08/19 13:56:30;;;;;;;11.00;9.08;;;20.20;99.90;;;;;;1941900;72;22617;-82
2022/08/19 13:59:36;;;;;;;11.28;10.08;;;20.10;99.90;;;;;;1897825;75;21073;-82
2022/08/19 14:02:27;;;;;;;10.65;9.55;;;20.10;99.90;;;;;;1909355;74;21109;-81
2022/08/19 14:05:21;;;;;;;11.68;10.15;;;20.20;99.90;;;;;;1897170;75;21200;-81
2022/08/19 14:08:14;;;;;;;10.63;9.55;;;20.20;99.90;;;;;;1890101;75;21062;-82
2022/08/19 14:13:44;;;;;;;9.83;8.90;;;20.40;99.90;;;;;;1950602;72;22225;-81
2022/08/19 14:16:35;;;;;;;9.03;8.05;;;20.50;99.90;;;;;;1933833;73;21071;-84
2022/08/19 14:19:34;;;;;;;9.10;8.30;;;20.50;99.90;;;;;;1922534;73;21176;-84
2022/08/19 14:22:28;;;;;;;10.08;9.08;;;20.60;99.90;;;;;;1918443;73;21548;-84
2022/08/19 14:25:23;;;;;;;9.78;8.78;;;20.70;99.90;;;;;;1931996;73;21072;-87
2022/08/19 14:28:17;;;;;;;9.58;8.65;;;20.60;99.90;;;;;;1931565;73;21110;-79
2022/08/19 14:31:09;;;;;;;9.75;8.53;;;20.70;99.90;;;;;;1937518;73;21127;-84
2022/08/19 14:34:00;;;;;;;9.50;8.53;;;20.90;99.90;;;;;;1932513;73;21131;-84
2022/08/19 14:36:52;;;;;;;9.70;8.80;;;21.00;99.90;;;;;;1930410;73;21058;-82
2022/08/19 14:39:44;;;;;;;9.20;8.30;;;21.00;99.90;;;;;;1934825;73;21196;-81
2022/08/19 14:42:35;;;;;;;8.65;7.78;;;20.90;99.90;;;;;;1932863;73;21031;-79
2022/08/19 14:48:13;;;;;;;9.40;7.78;;;21.10;99.90;;;;;;1932658;72;22247;-81
2022/08/19 14:53:49;;;;;;;9.15;7.85;;;21.20;99.90;;;;;;1923021;72;22165;-82
2022/08/19 14:56:44;;;;;;;8.40;7.60;;;21.20;99.90;;;;;;1902371;73;21158;-86
2022/08/19 15:02:18;;;;;;;7.42;6.72;;;21.20;99.90;;;;;;1936533;72;22257;-85
2022/08/19 15:07:51;;;;;;;6.87;6.30;;;21.20;99.90;;;;;;1933826;72;22110;-89
2022/08/19 15:26:36;;;;;;;9.35;8.45;;;21.10;99.90;;;;;;1944217;72;22138;-86
2022/08/19 15:29:28;;;;;;;8.18;7.37;;;21.20;99.90;;;;;;1928437;73;21101;-84
2022/08/19 15:32:22;;;;;;;7.72;6.92;;;21.30;99.90;;;;;;1930928;73;21116;-84
2022/08/19 15:35:14;;;;;;;8.10;7.37;;;21.50;99.90;;;;;;1928198;73;21086;-86
2022/08/19 15:38:06;;;;;;;7.95;7.20;;;21.60;99.90;;;;;;1928970;73;21104;-84
2022/08/19 15:41:22;;;;;;;7.53;6.70;;;21.60;99.90;;;;;;1925220;73;21038;-81
2022/08/19 15:43:57;;;;;;;6.97;6.37;;;21.50;99.90;;;;;;1915997;73;21073;-85
2022/08/19 15:46:57;;;;;;;7.53;6.70;;;21.60;99.90;;;;;;1914683;73;21038;-82
2022/08/19 15:49:48;;;;;;;6.78;6.17;;;21.70;99.90;;;;;;1914798;75;21030;-88
2022/08/19 15:52:56;;;;;;;9.33;6.15;;;21.90;99.90;;;;;;1885657;75;21074;-88
2022/08/19 15:55:48;;;;;;;7.47;6.78;;;22.20;99.90;;;;;;1884267;75;21082;-88
2022/08/19 16:08:21;;;;;;;5.08;4.25;;;24.80;99.90;;;;;;1858122;76;21070;-89
2022/08/19 16:13:56;;;;;;;4.90;4.40;;;26.80;99.90;;;;;;1940933;72;22188;-89
2022/08/19 16:16:49;;;;;;;6.00;4.20;;;26.60;99.90;;;;;;1891285;74;21122;-89
2022/08/19 16:19:41;;;;;;;4.67;4.35;;;26.50;99.90;;;;;;1869966;75;21846;-89
2022/08/19 16:22:34;;;;;;;5.55;4.40;;;28.40;99.90;;;;;;1886590;75;21123;-89
2022/08/19 16:25:35;;;;;;;5.70;5.20;;;29.60;99.90;;;;;;1891929;75;21075;-89
2022/08/19 16:31:08;;;;;;;6.85;5.58;;;28.80;99.90;;;;;;1945215;72;22129;-86
2022/08/19 16:34:00;;;;;;;7.92;5.85;;;28.60;99.90;;;;;;1932008;73;21075;-86
2022/08/19 16:36:52;;;;;;;6.65;6.03;;;28.70;99.90;;;;;;1935170;73;21110;-90
2022/08/19 16:39:44;;;;;;;6.10;5.60;;;28.80;99.90;;;;;;1916356;74;21068;-89
2022/08/19 16:42:37;;;;;;;6.15;5.58;;;27.80;99.90;;;;;;1938244;73;21050;-89
2022/08/19 16:45:39;;;;;;;6.62;5.45;;;27.70;99.90;;;;;;1927512;73;21106;-90
2022/08/19 16:48:34;;;;;;;5.90;5.40;;;27.80;99.90;;;;;;1923262;73;21106;-91
2022/08/19 16:54:51;;;;;;;5.95;5.45;;;27.30;99.90;;;;;;1928492;73;21074;-89
2022/08/19 16:57:47;;;;;;;6.33;5.83;;;26.20;99.90;;;;;;1922408;73;21034;-89
2022/08/19 17:00:53;;;;;;;6.20;5.70;;;25.50;99.90;;;;;;1916994;73;21121;-89
2022/08/19 17:03:49;;;;;;;6.30;5.80;;;26.00;99.90;;;;;;1917333;75;21166;-89
2022/08/19 17:06:40;;;;;;;6.25;5.65;;;26.20;99.90;;;;;;1932263;73;21143;-89
2022/08/19 17:09:32;;;;;;;6.30;5.80;;;26.20;99.90;;;;;;1924003;73;21103;-89
2022/08/19 17:12:24;;;;;;;6.28;5.75;;;25.90;99.90;;;;;;1917133;73;21672;-89
2022/08/19 17:18:02;;;;;;;6.65;6.05;;;25.10;99.90;;;;;;1943370;72;22190;-88
2022/08/19 17:20:55;;;;;;;6.45;5.85;;;24.80;99.90;;;;;;1918068;74;21121;-89
2022/08/19 17:23:47;;;;;;;6.00;5.50;;;24.90;99.90;;;;;;1906548;75;21129;-89
2022/08/19 17:43:25;;;;;;;6.40;5.80;;;23.90;99.90;;;;;;1937501;72;22216;-86
2022/08/19 17:49:01;;;;;;;6.35;5.75;;;23.60;99.90;;;;;;1947171;72;22267;-82
2022/08/19 17:51:52;;;;;;;6.97;6.37;;;23.40;99.90;;;;;;1918344;73;21111;-86
2022/08/19 17:54:44;;;;;;;6.78;6.17;;;23.20;99.90;;;;;;1919858;73;21106;-85
2022/08/19 17:57:38;;;;;;;9.35;6.15;;;23.00;99.90;;;;;;1926062;73;21108;-86
2022/08/19 18:03:09;;;;;;;8.65;6.42;;;22.80;99.90;;;;;;1956340;72;22099;-85
2022/08/19 18:06:04;;;;;;;6.65;5.95;;;22.80;99.90;;;;;;1933983;72;21179;-86
2022/08/19 18:08:59;;;;;;;6.08;5.47;;;22.80;99.90;;;;;;1933914;72;21141;-86
2022/08/19 18:11:50;;;;;;;5.60;5.10;;;22.80;99.90;;;;;;1941465;73;21102;-85
2022/08/19 18:14:43;;;;;;;5.75;5.25;;;22.80;99.90;;;;;;1932761;73;21155;-86
2022/08/19 18:17:36;;;;;;;6.12;5.58;;;22.70;99.90;;;;;;1938353;73;21572;-84
2022/08/19 18:20:27;;;;;;;6.12;5.15;;;22.70;99.90;;;;;;1933074;73;21806;-85
2022/08/19 18:23:18;;;;;;;5.78;5.10;;;22.70;99.90;;;;;;1937137;72;21124;-85
2022/08/19 18:26:11;;;;;;;5.55;5.00;;;22.70;99.90;;;;;;1936693;73;21211;-85
2022/08/19 18:29:02;;;;;;;5.55;5.08;;;22.60;99.90;;;;;;1927704;73;21182;-85
2022/08/19 18:31:55;;;;;;;6.30;5.55;;;22.70;99.90;;;;;;1929767;73;21135;-85
2022/08/19 18:34:46;;;;;;;6.35;5.40;;;22.80;99.90;;;;;;1926508;73;21055;-85
2022/08/19 18:37:39;;;;;;;5.37;4.67;;;22.70;99.90;;;;;;1924118;73;21171;-85
2022/08/19 18:52:39;;;;;;;5.67;5.17;;;22.60;99.90;;;;;;1934748;72;22205;-85
2022/08/19 18:55:31;;;;;;;6.17;5.45;;;22.60;99.90;;;;;;1909883;75;21103;-82
2022/08/19 18:58:22;;;;;;;5.75;4.90;;;22.50;99.90;;;;;;1909933;75;21490;-81